Time;durP1;ratioP1;P1;durP2;ratioP2;P2;SDS_P1;SDS_P2;PMS_P1;PMS_P2;Temp;Humidity;BMP_temperature;BMP_pressure;BME280_temperature;BME280_humidity;BME280_pressure;Samples;Min_cycle;Max_cycle;Signal;HPM_P1;HPM_P2
2021/12/23 00:01:23;;;;;;;122.57;56.88;;;-0.60;99.90;;;;;;5072360;28;20063;-86
2021/12/23 00:03:48;;;;;;;95.88;51.83;;;-0.60;99.90;;;;;;5091320;28;20113;-81
2021/12/23 00:06:14;;;;;;;102.57;54.33;;;-0.70;99.90;;;;;;5091783;28;20040;-80
2021/12/23 00:08:40;;;;;;;103.88;57.28;;;-0.80;99.90;;;;;;5090800;28;20101;-81
2021/12/23 00:11:06;;;;;;;122.05;62.72;;;-0.70;99.90;;;;;;5091393;28;20071;-80
2021/12/23 00:13:36;;;;;;;110.00;59.65;;;-0.80;99.90;;;;;;5092452;28;20035;-80
2021/12/23 00:16:05;;;;;;;91.75;53.65;;;-0.90;99.90;;;;;;5093168;28;20054;-81
2021/12/23 00:23:45;;;;;;;75.03;41.53;;;-0.60;99.90;;;;;;5091386;28;20090;-82
2021/12/23 00:26:11;;;;;;;59.28;34.85;;;-0.70;99.90;;;;;;5089410;28;20534;-82
2021/12/23 00:28:37;;;;;;;59.20;34.45;;;-0.60;99.90;;;;;;5090527;28;20716;-81
2021/12/23 00:31:05;;;;;;;53.63;31.42;;;-0.60;99.90;;;;;;5092112;28;20491;-81
2021/12/23 00:33:31;;;;;;;58.03;33.85;;;-0.50;99.90;;;;;;5090658;28;20115;-81
2021/12/23 00:35:58;;;;;;;60.72;34.28;;;-0.60;99.90;;;;;;5090891;28;20517;-81
2021/12/23 00:38:29;;;;;;;121.57;61.92;;;-0.60;99.90;;;;;;5072358;28;20048;-82
2021/12/23 00:40:57;;;;;;;122.53;63.47;;;-0.70;99.90;;;;;;5064657;28;20032;-81
2021/12/23 00:43:23;;;;;;;100.70;52.75;;;-0.70;99.90;;;;;;5090706;28;20074;-81
2021/12/23 00:45:49;;;;;;;92.45;51.63;;;-0.80;99.90;;;;;;5090460;28;20098;-79
2021/12/23 00:48:16;;;;;;;93.63;50.03;;;-0.80;99.90;;;;;;5092898;28;20082;-82
2021/12/23 00:50:43;;;;;;;81.85;46.67;;;-0.80;99.90;;;;;;5093198;28;20055;-81
2021/12/23 00:53:10;;;;;;;72.70;42.30;;;-0.90;99.90;;;;;;5093227;28;20044;-81
2021/12/23 00:55:36;;;;;;;68.00;38.83;;;-0.80;99.90;;;;;;5074059;28;20044;-81
2021/12/23 00:58:04;;;;;;;68.50;40.85;;;-0.70;99.90;;;;;;5094316;28;20548;-81
2021/12/23 01:00:31;;;;;;;58.47;35.05;;;-0.70;99.90;;;;;;5074342;28;20392;-82
2021/12/23 01:02:59;;;;;;;59.90;36.40;;;-0.60;99.90;;;;;;5090048;28;20043;-81
2021/12/23 01:05:26;;;;;;;68.47;40.53;;;-0.40;99.90;;;;;;5090013;28;20127;-82
2021/12/23 01:07:52;;;;;;;63.22;36.15;;;-0.70;99.90;;;;;;5089091;28;20044;-81
2021/12/23 01:10:18;;;;;;;64.82;38.97;;;-0.60;99.90;;;;;;5103190;28;20130;-82
2021/12/23 01:12:48;;;;;;;57.28;34.83;;;-0.60;99.90;;;;;;5092897;28;20499;-81
2021/12/23 01:15:27;;;;;;;50.83;29.20;;;-0.60;99.90;;;;;;5091312;28;20044;-81
2021/12/23 01:17:57;;;;;;;53.65;30.73;;;-0.30;99.90;;;;;;5092287;28;20047;-81
2021/12/23 01:20:28;;;;;;;44.22;25.27;;;-0.50;99.90;;;;;;5093192;28;20110;-81
2021/12/23 01:22:57;;;;;;;49.83;30.15;;;-0.30;99.90;;;;;;5082810;28;20410;-81
2021/12/23 01:25:23;;;;;;;43.90;26.60;;;-0.50;99.90;;;;;;5091638;28;20624;-82
2021/12/23 01:27:50;;;;;;;41.22;23.95;;;-0.70;99.90;;;;;;5091980;28;20487;-82
2021/12/23 01:30:19;;;;;;;38.17;23.90;;;-0.60;99.90;;;;;;5089593;28;20032;-82
2021/12/23 01:32:47;;;;;;;33.97;19.88;;;-0.60;99.90;;;;;;5091549;28;20050;-81
2021/12/23 01:35:20;;;;;;;41.95;24.13;;;-0.30;99.90;;;;;;5091515;28;20028;-81
2021/12/23 01:37:49;;;;;;;35.30;20.42;;;-0.40;99.90;;;;;;5091458;28;20044;-81
2021/12/23 01:40:17;;;;;;;34.22;20.13;;;-0.30;99.90;;;;;;5090053;28;20077;-81
2021/12/23 01:42:43;;;;;;;36.30;20.05;;;0.00;99.90;;;;;;5092538;28;20044;-82
2021/12/23 01:45:13;;;;;;;36.85;21.42;;;0.30;99.90;;;;;;5092447;28;20082;-82
2021/12/23 01:47:40;;;;;;;42.25;21.85;;;0.50;99.90;;;;;;5091402;28;20052;-81
2021/12/23 01:50:09;;;;;;;40.17;23.15;;;0.60;99.90;;;;;;5089966;28;20036;-81
2021/12/23 01:52:36;;;;;;;41.70;23.35;;;0.90;99.90;;;;;;5090837;28;20114;-81
2021/12/23 01:55:02;;;;;;;40.70;23.75;;;1.10;99.90;;;;;;5090988;28;20038;-82
2021/12/23 01:57:31;;;;;;;34.72;21.23;;;1.20;99.90;;;;;;5090997;28;20043;-85
2021/12/23 02:00:02;;;;;;;41.58;22.58;;;1.60;99.90;;;;;;5092574;28;20463;-83
2021/12/23 02:02:28;;;;;;;34.30;20.67;;;1.80;99.90;;;;;;5090802;28;20040;-86
2021/12/23 02:04:54;;;;;;;34.47;21.38;;;1.70;99.90;;;;;;5090583;28;20567;-86
2021/12/23 02:07:20;;;;;;;24.90;16.30;;;1.70;99.90;;;;;;5092555;28;20044;-82
2021/12/23 02:09:46;;;;;;;28.27;17.67;;;1.80;99.90;;;;;;5092142;28;20036;-81
2021/12/23 02:12:12;;;;;;;35.47;22.20;;;1.60;99.90;;;;;;5091495;28;20096;-82
2021/12/23 02:14:38;;;;;;;38.50;21.45;;;0.50;99.90;;;;;;5089183;28;20044;-82
2021/12/23 02:17:04;;;;;;;33.40;20.48;;;-0.30;99.90;;;;;;5090624;28;20387;-81
2021/12/23 02:19:32;;;;;;;30.10;17.83;;;0.10;99.90;;;;;;5092840;28;20542;-81
2021/12/23 02:22:10;;;;;;;28.02;17.00;;;0.70;99.90;;;;;;5094703;28;20432;-85
2021/12/23 02:24:37;;;;;;;30.45;16.45;;;1.40;99.90;;;;;;5094281;28;20118;-84
2021/12/23 02:27:03;;;;;;;25.15;15.57;;;1.40;99.90;;;;;;5093683;28;20478;-84
2021/12/23 02:29:29;;;;;;;25.33;16.02;;;1.70;99.90;;;;;;5094025;28;20032;-85
2021/12/23 02:31:55;;;;;;;25.85;15.48;;;2.00;99.90;;;;;;5094125;28;20040;-84
2021/12/23 02:34:21;;;;;;;24.63;15.65;;;2.00;99.90;;;;;;5092985;28;20035;-82
2021/12/23 02:36:57;;;;;;;23.83;13.95;;;1.90;99.90;;;;;;5094490;28;20556;-85
2021/12/23 02:39:24;;;;;;;23.90;15.13;;;;;;;;;;5094076;28;20546;-83
2021/12/23 02:41:53;;;;;;;23.33;14.55;;;;;;;;;;5093889;28;20102;-84
2021/12/23 02:44:21;;;;;;;21.08;14.32;;;;;;;;;;5095417;28;20051;-82
2021/12/23 02:46:47;;;;;;;21.63;14.18;;;2.30;99.90;;;;;;5094814;28;20039;-86
2021/12/23 02:49:13;;;;;;;20.60;13.85;;;2.30;99.90;;;;;;5094919;28;20031;-87
2021/12/23 02:51:40;;;;;;;19.10;13.40;;;2.30;99.90;;;;;;5094393;28;20079;-86
2021/12/23 02:54:05;;;;;;;19.02;13.00;;;2.10;99.90;;;;;;5095314;28;20043;-84
2021/12/23 02:56:32;;;;;;;26.50;13.52;;;2.00;99.90;;;;;;5095679;28;20036;-85
2021/12/23 02:58:58;;;;;;;22.38;13.90;;;2.10;99.90;;;;;;5093798;28;20138;-85
2021/12/23 03:01:24;;;;;;;23.75;14.27;;;2.10;99.90;;;;;;5094180;28;20151;-85
2021/12/23 03:03:51;;;;;;;18.95;13.35;;;2.30;99.90;;;;;;5095627;28;20047;-85
2021/12/23 03:06:19;;;;;;;20.33;13.85;;;2.30;99.90;;;;;;5093239;28;20038;-81
2021/12/23 03:08:49;;;;;;;21.67;13.90;;;2.30;99.90;;;;;;5094150;28;20115;-86
2021/12/23 03:11:17;;;;;;;20.20;13.23;;;2.40;99.90;;;;;;5095424;28;20040;-83
2021/12/23 03:13:44;;;;;;;23.38;15.23;;;2.40;99.90;;;;;;5094391;28;20395;-85
2021/12/23 03:16:12;;;;;;;36.92;22.90;;;2.20;99.90;;;;;;5094167;28;20795;-85
2021/12/23 03:18:38;;;;;;;34.58;22.23;;;2.10;99.90;;;;;;5094151;28;20079;-84
2021/12/23 03:21:04;;;;;;;36.85;21.60;;;2.00;99.90;;;;;;5076081;28;20032;-85
2021/12/23 03:23:31;;;;;;;22.88;15.40;;;1.80;99.90;;;;;;5095083;28;20043;-86
2021/12/23 03:25:56;;;;;;;24.15;15.20;;;1.80;99.90;;;;;;5093512;28;20040;-85
2021/12/23 03:28:22;;;;;;;21.55;15.60;;;2.00;99.90;;;;;;5093574;28;20055;-80
2021/12/23 03:30:49;;;;;;;21.38;14.68;;;2.10;99.90;;;;;;5091853;28;20481;-78
2021/12/23 03:33:16;;;;;;;24.05;15.02;;;2.10;99.90;;;;;;5093697;28;20115;-85
2021/12/23 03:35:42;;;;;;;22.55;14.07;;;2.10;99.90;;;;;;5093846;28;20036;-84
2021/12/23 03:38:08;;;;;;;19.63;13.02;;;2.20;99.90;;;;;;5093817;28;20414;-86
2021/12/23 03:40:34;;;;;;;18.98;12.00;;;2.20;99.90;;;;;;5093113;28;20056;-85
2021/12/23 03:43:00;;;;;;;16.38;11.55;;;2.20;99.90;;;;;;5093660;28;20559;-86
2021/12/23 03:45:26;;;;;;;18.23;12.73;;;2.10;99.90;;;;;;5093935;28;20469;-85
2021/12/23 03:47:52;;;;;;;21.35;12.75;;;2.10;99.90;;;;;;5093721;28;20522;-80
2021/12/23 03:50:20;;;;;;;24.38;14.80;;;2.20;99.90;;;;;;5093498;28;20122;-83
2021/12/23 03:52:49;;;;;;;20.88;15.05;;;2.00;99.90;;;;;;5093573;28;20573;-82
2021/12/23 03:55:16;;;;;;;21.15;14.35;;;1.80;99.90;;;;;;5091783;28;20471;-83
2021/12/23 03:57:42;;;;;;;21.98;14.18;;;1.80;99.90;;;;;;5092895;28;20040;-84
2021/12/23 04:00:12;;;;;;;18.10;13.32;;;1.90;99.90;;;;;;5093459;28;20051;-83
2021/12/23 04:02:38;;;;;;;20.60;13.18;;;1.90;99.90;;;;;;5093341;28;20024;-82
2021/12/23 04:05:08;;;;;;;17.95;12.93;;;1.80;99.90;;;;;;5093954;28;20032;-84
2021/12/23 04:07:35;;;;;;;19.13;12.35;;;1.80;99.90;;;;;;5094132;28;20085;-82
2021/12/23 04:10:02;;;;;;;20.60;12.43;;;2.00;99.90;;;;;;5094106;28;20046;-85
2021/12/23 04:12:28;;;;;;;21.17;11.38;;;2.10;99.90;;;;;;5092898;28;20031;-84
2021/12/23 04:14:54;;;;;;;17.65;10.60;;;2.20;99.90;;;;;;5093100;28;20118;-83
2021/12/23 04:17:20;;;;;;;23.85;15.32;;;2.20;99.90;;;;;;5093902;28;20044;-84
2021/12/23 04:19:47;;;;;;;17.50;11.50;;;2.20;99.90;;;;;;5093406;28;20056;-84
2021/12/23 04:22:13;;;;;;;20.00;11.68;;;2.30;99.90;;;;;;5092557;28;20028;-82
2021/12/23 04:24:39;;;;;;;18.48;12.18;;;2.30;99.90;;;;;;5093199;28;20052;-82
2021/12/23 04:27:05;;;;;;;17.88;11.80;;;2.30;99.90;;;;;;5092785;28;20557;-83
2021/12/23 04:29:31;;;;;;;18.40;12.02;;;2.40;99.90;;;;;;5092476;28;20502;-86
2021/12/23 04:31:59;;;;;;;19.05;12.07;;;2.40;99.90;;;;;;5092377;28;20044;-87
2021/12/23 04:34:25;;;;;;;14.98;10.95;;;2.50;99.90;;;;;;5093678;28;20515;-83
2021/12/23 04:36:50;;;;;;;16.50;11.52;;;2.40;99.90;;;;;;5093364;28;20046;-85
2021/12/23 04:39:16;;;;;;;15.90;11.13;;;2.30;99.90;;;;;;5092879;28;20139;-86
2021/12/23 04:41:42;;;;;;;13.93;10.23;;;2.30;99.90;;;;;;5092753;28;20036;-86
2021/12/23 04:44:08;;;;;;;14.80;10.60;;;2.30;99.90;;;;;;5091178;28;20507;-85
2021/12/23 04:46:33;;;;;;;18.50;11.15;;;2.30;99.90;;;;;;5092457;28;20028;-86
2021/12/23 04:48:59;;;;;;;15.48;10.85;;;2.50;99.90;;;;;;5092323;28;20047;-87
2021/12/23 04:51:25;;;;;;;19.48;11.40;;;2.60;99.90;;;;;;5093066;28;20028;-84
2021/12/23 04:53:51;;;;;;;18.02;9.88;;;2.70;99.90;;;;;;5090887;28;20032;-84
2021/12/23 04:56:18;;;;;;;16.38;9.77;;;2.70;99.90;;;;;;5092645;28;20437;-87
2021/12/23 04:58:44;;;;;;;14.93;10.45;;;2.70;99.90;;;;;;5091970;28;20110;-84
2021/12/23 05:01:21;;;;;;;16.92;10.32;;;2.70;99.90;;;;;;5091872;28;20040;-88
2021/12/23 05:03:48;;;;;;;14.98;9.63;;;2.60;99.90;;;;;;5090981;28;20403;-86
2021/12/23 05:06:17;;;;;;;14.52;8.80;;;2.70;99.90;;;;;;5091957;28;20534;-85
2021/12/23 05:08:43;;;;;;;13.80;9.63;;;2.60;99.90;;;;;;5092548;28;20039;-87
2021/12/23 05:11:10;;;;;;;12.55;9.43;;;2.50;99.90;;;;;;5092769;28;20480;-85
2021/12/23 05:13:35;;;;;;;16.67;10.43;;;2.40;99.90;;;;;;5091806;28;20410;-85
2021/12/23 05:16:01;;;;;;;14.20;9.90;;;2.30;99.90;;;;;;5091651;28;20027;-83
2021/12/23 05:18:27;;;;;;;13.60;9.73;;;2.30;99.90;;;;;;5093158;28;20048;-84
2021/12/23 05:20:53;;;;;;;14.68;9.90;;;2.40;99.90;;;;;;5092783;28;20043;-84
2021/12/23 05:23:19;;;;;;;14.05;10.38;;;2.40;99.90;;;;;;5092868;28;20085;-84
2021/12/23 05:25:44;;;;;;;20.27;12.27;;;2.40;99.90;;;;;;5091712;28;20098;-82
2021/12/23 05:28:11;;;;;;;18.25;10.95;;;2.30;99.90;;;;;;5090392;28;20036;-84
2021/12/23 05:30:37;;;;;;;18.02;11.40;;;2.10;99.90;;;;;;5090265;28;20032;-84
2021/12/23 05:33:03;;;;;;;16.05;11.32;;;2.10;99.90;;;;;;5091489;28;20036;-82
2021/12/23 05:35:29;;;;;;;14.27;9.00;;;2.30;99.90;;;;;;5091472;28;20042;-83
2021/12/23 05:37:55;;;;;;;16.13;9.77;;;2.50;99.90;;;;;;5090907;28;20047;-83
2021/12/23 05:40:24;;;;;;;15.98;10.30;;;2.40;99.90;;;;;;5091615;28;20036;-82
2021/12/23 05:42:51;;;;;;;16.83;11.13;;;2.40;99.90;;;;;;5091874;28;20115;-81
2021/12/23 05:45:19;;;;;;;14.38;10.10;;;2.20;99.90;;;;;;5091981;28;20154;-81
2021/12/23 05:47:46;;;;;;;12.82;9.10;;;2.20;99.90;;;;;;5091442;28;20107;-84
2021/12/23 05:50:13;;;;;;;14.65;9.45;;;2.30;99.90;;;;;;5091020;28;20050;-83
2021/12/23 05:52:39;;;;;;;16.52;10.57;;;2.40;99.90;;;;;;5091231;28;20036;-83
2021/12/23 05:55:07;;;;;;;13.50;9.65;;;2.70;99.90;;;;;;5090990;28;20137;-83
2021/12/23 05:57:32;;;;;;;15.43;9.23;;;2.60;99.90;;;;;;5091239;28;20402;-83
2021/12/23 05:59:58;;;;;;;14.77;9.57;;;2.50;99.90;;;;;;5092227;28;20134;-83
2021/12/23 06:02:24;;;;;;;15.77;9.93;;;2.60;99.90;;;;;;5092576;28;20449;-84
2021/12/23 06:04:50;;;;;;;13.95;9.88;;;2.20;99.90;;;;;;5091365;28;20097;-81
2021/12/23 06:07:16;;;;;;;13.63;9.05;;;2.00;99.90;;;;;;5091697;28;20028;-83
2021/12/23 06:09:42;;;;;;;15.95;10.00;;;1.90;99.90;;;;;;5091272;28;20113;-84
2021/12/23 06:12:08;;;;;;;12.52;9.30;;;2.20;99.90;;;;;;5091139;28;20118;-84
2021/12/23 06:14:33;;;;;;;13.73;9.18;;;2.40;99.90;;;;;;5091866;28;20131;-84
2021/12/23 06:17:01;;;;;;;14.00;10.43;;;2.60;99.90;;;;;;5091103;28;20063;-84
2021/12/23 06:19:27;;;;;;;16.63;9.73;;;2.50;99.90;;;;;;5072733;28;20506;-83
2021/12/23 06:21:53;;;;;;;16.50;9.13;;;2.60;99.90;;;;;;5092075;28;20066;-82
2021/12/23 06:24:19;;;;;;;13.07;9.18;;;2.60;99.90;;;;;;5092301;28;20094;-82
2021/12/23 06:26:47;;;;;;;11.93;9.02;;;2.60;99.90;;;;;;5091632;28;20053;-84
2021/12/23 06:29:13;;;;;;;12.77;8.88;;;2.70;99.90;;;;;;5090715;28;20089;-81
2021/12/23 06:31:39;;;;;;;15.50;9.13;;;2.70;99.90;;;;;;5072642;28;20028;-81
2021/12/23 06:34:05;;;;;;;12.25;9.38;;;2.80;99.90;;;;;;5091256;28;20047;-83
2021/12/23 06:36:31;;;;;;;14.00;9.82;;;2.70;99.90;;;;;;5081027;28;20090;-84
2021/12/23 06:38:58;;;;;;;18.88;11.57;;;2.50;99.90;;;;;;5110910;28;20083;-83
2021/12/23 06:41:23;;;;;;;16.55;10.43;;;2.50;99.90;;;;;;5111507;28;20126;-84
2021/12/23 06:43:49;;;;;;;13.02;9.88;;;2.50;99.90;;;;;;5093216;28;20122;-84
2021/12/23 06:46:15;;;;;;;14.77;10.13;;;2.50;99.90;;;;;;5111658;28;20036;-86
2021/12/23 06:48:41;;;;;;;16.25;10.73;;;2.40;99.90;;;;;;5092896;28;20039;-84
2021/12/23 06:51:07;;;;;;;16.65;10.23;;;2.30;99.90;;;;;;5111317;28;20031;-86
2021/12/23 06:53:33;;;;;;;15.80;10.18;;;2.40;99.90;;;;;;5111287;28;20176;-85
2021/12/23 06:56:00;;;;;;;15.38;10.57;;;2.30;99.90;;;;;;5111381;28;20035;-86
2021/12/23 06:58:26;;;;;;;15.02;10.80;;;2.40;99.90;;;;;;5111128;28;20035;-85
2021/12/23 07:00:54;;;;;;;15.30;10.45;;;2.40;99.90;;;;;;5112325;28;20560;-87
2021/12/23 07:03:20;;;;;;;15.80;10.50;;;2.30;99.90;;;;;;5092961;28;20438;-85
2021/12/23 07:05:52;;;;;;;14.65;10.13;;;2.40;99.90;;;;;;5113470;28;20042;-87
2021/12/23 07:08:27;;;;;;;15.15;10.20;;;2.50;99.90;;;;;;5116176;28;20047;-85
2021/12/23 07:10:54;;;;;;;17.67;11.30;;;2.20;99.90;;;;;;5115859;28;20051;-84
2021/12/23 07:13:20;;;;;;;18.13;10.18;;;2.30;99.90;;;;;;5115949;28;20084;-84
2021/12/23 07:15:47;;;;;;;15.02;8.82;;;2.30;99.90;;;;;;5097049;28;20055;-85
2021/12/23 07:18:13;;;;;;;13.77;9.52;;;2.40;99.90;;;;;;5114707;28;20523;-86
2021/12/23 07:20:39;;;;;;;14.38;10.07;;;2.60;99.90;;;;;;5115793;28;20090;-86
2021/12/23 07:23:05;;;;;;;17.00;9.38;;;2.50;99.90;;;;;;5096448;28;20067;-85
2021/12/23 07:25:31;;;;;;;13.43;9.60;;;2.50;99.90;;;;;;5103241;28;20073;-84
2021/12/23 07:27:57;;;;;;;15.00;10.30;;;2.50;99.90;;;;;;5086549;28;20148;-78
2021/12/23 07:30:23;;;;;;;13.25;9.77;;;2.20;99.90;;;;;;5088428;28;20526;-80
2021/12/23 07:32:50;;;;;;;13.98;9.90;;;2.00;99.90;;;;;;5092705;28;20502;-81
2021/12/23 07:35:17;;;;;;;14.02;9.68;;;2.00;99.90;;;;;;5077114;28;20048;-84
2021/12/23 07:37:43;;;;;;;13.27;10.00;;;2.30;99.90;;;;;;5077234;28;20039;-80
2021/12/23 07:40:14;;;;;;;15.05;10.43;;;2.40;99.90;;;;;;5093947;28;20048;-84
2021/12/23 07:42:44;;;;;;;12.90;9.25;;;2.40;99.90;;;;;;5093721;28;20047;-88
2021/12/23 07:45:10;;;;;;;13.77;10.13;;;2.70;99.90;;;;;;5093804;28;20042;-83
2021/12/23 07:47:36;;;;;;;18.48;10.70;;;2.80;99.90;;;;;;5093789;28;20048;-83
2021/12/23 07:50:03;;;;;;;13.82;10.00;;;3.10;99.90;;;;;;5094676;28;20028;-83
2021/12/23 07:52:29;;;;;;;13.02;9.77;;;3.50;99.90;;;;;;5092480;28;20040;-79
2021/12/23 07:54:54;;;;;;;14.35;9.90;;;3.60;99.90;;;;;;5093454;28;20445;-85
2021/12/23 07:57:20;;;;;;;12.30;9.18;;;3.50;99.90;;;;;;5093413;28;20052;-80
2021/12/23 07:59:46;;;;;;;15.13;9.77;;;3.70;99.90;;;;;;5091794;28;20518;-84
2021/12/23 08:02:12;;;;;;;14.18;9.80;;;3.90;99.90;;;;;;5093593;28;20054;-82
2021/12/23 08:04:38;;;;;;;13.65;10.68;;;4.00;99.90;;;;;;5073502;28;20039;-84
2021/12/23 08:07:04;;;;;;;13.60;10.15;;;3.70;99.90;;;;;;5093343;28;20660;-81
2021/12/23 08:09:30;;;;;;;17.63;10.02;;;3.70;99.90;;;;;;5074402;28;20582;-81
2021/12/23 08:11:59;;;;;;;13.32;9.52;;;3.70;99.90;;;;;;5093627;28;20113;-81
2021/12/23 08:14:24;;;;;;;12.25;8.55;;;3.90;99.90;;;;;;5076853;28;20036;-84
2021/12/23 08:16:50;;;;;;;11.00;8.77;;;4.00;99.90;;;;;;5093303;28;20058;-81
2021/12/23 08:19:16;;;;;;;13.80;9.45;;;4.00;99.90;;;;;;5092060;28;20059;-80
2021/12/23 08:21:42;;;;;;;14.45;9.35;;;4.00;99.90;;;;;;5093189;28;20404;-73
2021/12/23 08:24:08;;;;;;;14.40;10.32;;;4.30;99.90;;;;;;5075052;28;20035;-82
2021/12/23 08:26:40;;;;;;;14.02;9.68;;;4.30;99.90;;;;;;5092413;28;20085;-80
2021/12/23 08:29:07;;;;;;;16.33;10.77;;;4.50;99.90;;;;;;5092207;28;20373;-76
2021/12/23 08:31:34;;;;;;;19.92;11.73;;;4.00;99.90;;;;;;5092512;28;20131;-79
2021/12/23 08:34:00;;;;;;;13.95;9.98;;;3.70;99.90;;;;;;5092619;28;20128;-81
2021/12/23 08:36:26;;;;;;;14.57;9.48;;;3.80;99.90;;;;;;5092701;28;20093;-82
2021/12/23 08:38:52;;;;;;;14.27;9.90;;;3.80;99.90;;;;;;5093249;28;20121;-83
2021/12/23 08:41:18;;;;;;;18.55;9.70;;;3.80;99.90;;;;;;5094351;28;20573;-81
2021/12/23 08:43:44;;;;;;;11.70;7.97;;;3.90;99.90;;;;;;5091393;28;20043;-77
2021/12/23 08:46:10;;;;;;;11.50;8.90;;;4.10;99.90;;;;;;5092420;28;20028;-79
2021/12/23 08:48:36;;;;;;;11.10;8.63;;;4.20;99.90;;;;;;5092480;28;20042;-81
2021/12/23 08:51:03;;;;;;;11.52;9.27;;;4.40;99.90;;;;;;5092180;28;20136;-81
2021/12/23 08:53:29;;;;;;;11.43;8.07;;;4.50;99.90;;;;;;5093198;28;20050;-79
2021/12/23 08:55:55;;;;;;;10.68;8.38;;;4.60;99.90;;;;;;5092404;28;20032;-81
2021/12/23 08:58:20;;;;;;;15.18;10.13;;;4.70;99.90;;;;;;5093363;28;20044;-80
2021/12/23 09:00:46;;;;;;;15.98;11.25;;;4.20;99.90;;;;;;5092559;28;20081;-80
2021/12/23 09:03:12;;;;;;;14.00;9.80;;;4.00;99.90;;;;;;5092506;28;20036;-80
2021/12/23 09:05:40;;;;;;;13.20;9.77;;;3.90;99.90;;;;;;5091929;28;20085;-80
2021/12/23 09:08:06;;;;;;;14.27;10.15;;;3.90;99.90;;;;;;5092029;28;20127;-80
2021/12/23 09:10:33;;;;;;;12.02;9.00;;;3.90;99.90;;;;;;5091795;28;20039;-81
2021/12/23 09:13:00;;;;;;;12.13;8.13;;;4.00;99.90;;;;;;5091993;28;20123;-81
2021/12/23 09:15:25;;;;;;;10.98;7.82;;;4.30;99.90;;;;;;5091585;28;20040;-81
2021/12/23 09:17:51;;;;;;;12.02;8.13;;;4.50;99.90;;;;;;5073332;28;20036;-78
2021/12/23 09:20:19;;;;;;;11.70;7.93;;;4.60;99.90;;;;;;5093668;28;20058;-80
2021/12/23 09:22:47;;;;;;;12.82;8.82;;;4.70;99.90;;;;;;5092922;28;20032;-81
2021/12/23 09:25:23;;;;;;;11.43;7.63;;;4.70;99.90;;;;;;5091938;28;20047;-80
2021/12/23 09:33:13;;;;;;;37.00;24.08;;;4.70;99.90;;;;;;5092075;28;20499;-81
2021/12/23 09:35:40;;;;;;;31.38;21.70;;;4.60;99.90;;;;;;5096408;28;20126;-80
2021/12/23 09:38:06;;;;;;;37.90;24.65;;;4.60;99.90;;;;;;5095168;28;20043;-80
2021/12/23 09:40:33;;;;;;;61.60;38.03;;;4.60;99.90;;;;;;5111864;28;20043;-80
2021/12/23 09:43:05;;;;;;;41.83;29.40;;;4.60;99.90;;;;;;5094321;28;20534;-81
2021/12/23 09:45:32;;;;;;;18.00;13.15;;;4.60;99.90;;;;;;5093119;28;20036;-81
2021/12/23 09:48:01;;;;;;;15.98;12.10;;;4.50;99.90;;;;;;5074904;28;20062;-80
2021/12/23 09:50:32;;;;;;;17.08;11.70;;;4.60;99.90;;;;;;5092830;28;20043;-80
2021/12/23 09:53:01;;;;;;;16.55;11.23;;;4.50;99.90;;;;;;5092966;28;20028;-80
2021/12/23 09:55:27;;;;;;;12.25;9.38;;;4.50;99.90;;;;;;5093017;28;20614;-80
2021/12/23 09:57:57;;;;;;;13.00;9.30;;;4.60;99.90;;;;;;5103421;28;20039;-80
2021/12/23 10:00:26;;;;;;;17.67;10.15;;;4.60;99.90;;;;;;5113169;28;20510;-81
2021/12/23 10:02:53;;;;;;;12.48;9.23;;;4.70;99.90;;;;;;5112576;28;20042;-80
2021/12/23 10:05:22;;;;;;;15.40;9.20;;;4.80;99.90;;;;;;5098876;28;20044;-80
2021/12/23 10:07:49;;;;;;;12.25;9.38;;;4.80;99.90;;;;;;5097587;28;20514;-81
2021/12/23 10:10:23;;;;;;;12.68;9.23;;;4.90;99.90;;;;;;5080963;28;20027;-78
2021/12/23 10:38:10;;;;;;;25.50;17.13;;;5.50;99.90;;;;;;5104906;28;20406;-80
2021/12/23 10:40:38;;;;;;;22.50;15.60;;;5.40;99.90;;;;;;5098286;28;20590;-80
2021/12/23 10:43:06;;;;;;;19.67;14.77;;;5.40;99.90;;;;;;5095554;28;20059;-81
2021/12/23 10:45:57;;;;;;;16.48;10.23;;;5.30;99.90;;;;;;5102544;28;20097;-80
2021/12/23 10:48:29;;;;;;;21.50;13.10;;;5.30;99.90;;;;;;5102603;28;20032;-82
2021/12/23 10:51:06;;;;;;;13.77;10.30;;;5.30;99.90;;;;;;5085654;28;20032;-80
2021/12/23 10:53:49;;;;;;;16.70;11.75;;;5.40;99.90;;;;;;5103581;28;20074;-83
2021/12/23 10:59:22;;;;;;;17.92;12.10;;;5.40;99.90;;;;;;5104685;28;20463;-80
2021/12/23 11:02:05;;;;;;;21.35;12.68;;;5.50;99.90;;;;;;5097208;28;20054;-86
2021/12/23 11:04:36;;;;;;;17.45;12.68;;;5.50;99.90;;;;;;5099567;28;20074;-81
2021/12/23 11:07:16;;;;;;;21.52;13.40;;;5.60;99.90;;;;;;5094076;28;20559;-82
2021/12/23 11:10:04;;;;;;;20.17;13.30;;;5.80;99.90;;;;;;5089528;28;20048;-81
2021/12/23 11:37:43;;;;;;;35.10;19.45;;;6.10;99.90;;;;;;5099317;28;20403;-79
2021/12/23 11:45:20;;;;;;;17.67;11.68;;;6.10;99.90;;;;;;5102364;28;20106;-80
2021/12/23 11:47:46;;;;;;;17.20;11.98;;;6.10;99.90;;;;;;5105105;28;20070;-77
2021/12/23 11:50:19;;;;;;;33.45;20.50;;;6.20;99.90;;;;;;5097122;28;20043;-80
2021/12/23 11:52:46;;;;;;;45.55;21.33;;;6.30;99.90;;;;;;5103199;28;20776;-82
2021/12/23 11:55:12;;;;;;;22.15;12.57;;;6.30;99.90;;;;;;5100925;28;20035;-79
2021/12/23 11:57:41;;;;;;;16.10;11.77;;;6.50;99.90;;;;;;5103605;28;20124;-83
2021/12/23 12:00:18;;;;;;;67.78;32.00;;;6.70;99.90;;;;;;5105635;28;20040;-80
2021/12/23 12:02:44;;;;;;;26.50;15.43;;;6.90;99.90;;;;;;5104101;28;20090;-84
2021/12/23 12:05:16;;;;;;;79.53;40.15;;;7.00;99.90;;;;;;5103434;28;20221;-79
2021/12/23 12:07:41;;;;;;;25.55;13.65;;;7.20;99.90;;;;;;5103298;28;20089;-79
2021/12/23 12:10:12;;;;;;;18.33;12.40;;;7.20;99.90;;;;;;5101869;28;20055;-76
2021/12/23 12:13:00;;;;;;;27.15;17.48;;;7.30;99.90;;;;;;5104233;28;20502;-77
2021/12/23 12:15:33;;;;;;;24.40;15.73;;;7.50;99.90;;;;;;5113393;28;20085;-81
2021/12/23 12:18:04;;;;;;;22.27;13.52;;;7.50;99.90;;;;;;5114500;28;20088;-80
2021/12/23 12:20:36;;;;;;;17.10;11.98;;;7.50;99.90;;;;;;5094429;28;20067;-79
2021/12/23 12:23:10;;;;;;;25.65;16.30;;;7.70;99.90;;;;;;5093706;28;20487;-79
2021/12/23 12:25:38;;;;;;;43.08;23.45;;;8.30;99.90;;;;;;5095314;28;20138;-80
2021/12/23 12:28:04;;;;;;;52.67;22.20;;;8.50;99.90;;;;;;5090103;28;20055;-79
2021/12/23 12:30:39;;;;;;;20.10;12.50;;;8.70;99.90;;;;;;5084206;28;20503;-78
2021/12/23 12:33:23;;;;;;;44.50;27.45;;;8.60;99.90;;;;;;5074675;28;20078;-78
2021/12/23 12:35:58;;;;;;;21.08;13.73;;;8.60;99.90;;;;;;5074326;28;20134;-78
2021/12/23 12:38:27;;;;;;;24.95;12.45;;;8.50;99.90;;;;;;5092620;28;20554;-77
2021/12/23 12:41:05;;;;;;;27.10;16.95;;;8.50;99.90;;;;;;5085243;28;20038;-79
2021/12/23 12:43:39;;;;;;;21.25;14.30;;;8.60;99.90;;;;;;5071994;28;20044;-79
2021/12/23 12:46:06;;;;;;;32.22;20.38;;;8.70;99.90;;;;;;5091167;28;20491;-79
2021/12/23 12:49:01;;;;;;;23.15;15.13;;;8.80;99.90;;;;;;5092835;28;20048;-79
2021/12/23 12:51:36;;;;;;;24.10;14.68;;;8.70;99.90;;;;;;5091802;28;20043;-79
2021/12/23 12:54:07;;;;;;;20.42;13.95;;;8.70;99.90;;;;;;5092474;28;20057;-79
2021/12/23 12:56:47;;;;;;;24.95;15.70;;;8.60;99.90;;;;;;5092668;28;20724;-79
2021/12/23 12:59:14;;;;;;;17.55;11.43;;;8.60;99.90;;;;;;5092925;28;20571;-80
2021/12/23 13:01:46;;;;;;;20.10;13.65;;;8.50;99.90;;;;;;5093664;28;20040;-80
2021/12/23 13:04:32;;;;;;;20.75;13.82;;;8.60;99.90;;;;;;5092500;28;20055;-80
2021/12/23 13:07:11;;;;;;;19.02;13.27;;;8.80;99.90;;;;;;5093778;28;20062;-80
2021/12/23 13:09:49;;;;;;;30.15;18.42;;;8.90;99.90;;;;;;5097495;28;20040;-78
2021/12/23 13:12:32;;;;;;;54.10;30.05;;;8.80;99.90;;;;;;5098238;28;20032;-80
2021/12/23 13:15:16;;;;;;;26.77;16.42;;;8.90;99.90;;;;;;5099235;28;20050;-78
2021/12/23 13:17:46;;;;;;;23.52;14.70;;;8.90;99.90;;;;;;5101516;28;20429;-78
2021/12/23 13:20:12;;;;;;;26.35;15.35;;;9.10;99.90;;;;;;5098996;28;20054;-78
2021/12/23 13:22:39;;;;;;;17.60;12.02;;;8.90;99.90;;;;;;5101277;28;20027;-80
2021/12/23 13:25:06;;;;;;;35.53;16.83;;;8.70;99.90;;;;;;5100502;28;20050;-78
2021/12/23 13:27:32;;;;;;;30.15;15.90;;;8.80;99.90;;;;;;5087151;28;20046;-78
2021/12/23 13:30:04;;;;;;;29.88;16.42;;;8.70;99.90;;;;;;5100106;28;20040;-79
2021/12/23 13:32:30;;;;;;;22.05;13.02;;;8.60;99.90;;;;;;5097828;28;20043;-79
2021/12/23 13:35:06;;;;;;;47.00;21.63;;;8.60;99.90;;;;;;5094106;28;20481;-79
2021/12/23 13:37:32;;;;;;;22.25;13.80;;;8.70;99.90;;;;;;5093320;28;20036;-79
2021/12/23 13:39:58;;;;;;;21.38;13.50;;;8.80;99.90;;;;;;5096048;28;20058;-79
2021/12/23 13:42:24;;;;;;;35.33;17.30;;;8.80;99.90;;;;;;5105866;28;20066;-79
2021/12/23 13:44:51;;;;;;;33.40;19.42;;;8.70;99.90;;;;;;5110340;28;20039;-80
2021/12/23 13:47:22;;;;;;;56.30;29.67;;;8.70;99.90;;;;;;5100712;28;20040;-81
2021/12/23 13:49:53;;;;;;;25.83;16.02;;;8.70;99.90;;;;;;5090895;28;20040;-81
2021/12/23 13:52:20;;;;;;;16.85;10.52;;;8.70;99.90;;;;;;5104819;28;20061;-80